Time,TemperatureF,DewpointF,PressureIn,WindDirection,WindDirectionDegrees,WindSpeedMPH,WindSpeedGustMPH,Humidity,HourlyPrecipIn,Conditions,Clouds,dailyrainin,SoftwareType,DateUTC
2013-02-24 00:00:00,26.6,24.9,29.91,NW,313,0.0,0.0,93,0.00,,OVC OVC///CB,0.00,WUHU216DAVISVP2,2013-02-24 05:00:00,
2013-02-24 00:05:00,26.7,25.0,29.91,NW,313,0.0,0.0,93,0.00,,OVC OVC///CB,0.00,WUHU216DAVISVP2,2013-02-24 05:05:00,
2013-02-24 00:10:00,26.7,25.0,29.91,NW,313,0.0,0.0,93,0.00,,OVC OVC///CB,0.00,WUHU216DAVISVP2,2013-02-24 05:10:00,
2013-02-24 00:15:00,26.8,25.1,29.91,NW,313,0.0,0.0,93,0.00,,OVC OVC///CB,0.00,WUHU216DAVISVP2,2013-02-24 05:15:00,
2013-02-24 00:20:00,26.8,25.1,29.91,NW,313,0.0,0.0,93,0.00,,OVC OVC///CB,0.00,WUHU216DAVISVP2,2013-02-24 05:20:00,
2013-02-24 00:25:00,26.9,25.2,29.91,NW,313,0.0,0.0,93,0.00,,OVC OVC///CB,0.00,WUHU216DAVISVP2,2013-02-24 05:25:00,
2013-02-24 00:30:00,27.0,25.3,29.92,NW,313,0.0,0.0,93,0.00,,OVC OVC///CB,0.00,WUHU216DAVISVP2,2013-02-24 05:30:00,
2013-02-24 00:35:00,26.9,25.2,29.92,NW,313,0.0,0.0,93,0.00,,OVC OVC///CB,0.00,WUHU216DAVISVP2,2013-02-24 05:35:00,
2013-02-24 00:40:00,26.9,25.2,29.92,NW,313,0.0,0.0,93,0.00,,OVC OVC///CB,0.00,WUHU216DAVISVP2,2013-02-24 05:40:00,
2013-02-24 00:45:00,26.8,25.1,29.92,NW,314,0.0,0.0,93,0.00,,OVC OVC///CB,0.00,WUHU216DAVISVP2,2013-02-24 05:45:00,
2013-02-24 00:50:00,26.9,25.2,29.92,NW,313,0.0,0.0,93,0.00,,OVC OVC///CB,0.00,WUHU216DAVISVP2,2013-02-24 05:50:00,
2013-02-24 00:55:00,26.9,25.2,29.92,NW,314,0.0,0.0,93,0.00,,OVC OVC///CB,0.00,WUHU216DAVISVP2,2013-02-24 05:55:00,
2013-02-24 01:00:00,27.0,25.3,29.93,NW,314,0.0,0.0,93,0.00,,OVC OVC///CB,0.00,WUHU216DAVISVP2,2013-02-24 06:00:00,
2013-02-24 01:05:00,27.2,25.5,29.92,NW,313,0.0,0.0,93,0.00,,OVC OVC///CB,0.00,WUHU216DAVISVP2,2013-02-24 06:05:00,
2013-02-24 01:10:00,27.3,25.6,29.93,West,262,0.0,1.0,93,0.00,,OVC OVC///CB,0.00,WUHU216DAVISVP2,2013-02-24 06:10:00,
2013-02-24 01:15:00,27.5,25.5,29.93,SW,226,0.0,1.0,92,0.00,,OVC OVC///CB,0.00,WUHU216DAVISVP2,2013-02-24 06:15:00,
2013-02-24 01:20:00,27.7,25.7,29.93,SW,226,0.0,1.0,92,0.00,,OVC OVC///CB,0.00,WUHU216DAVISVP2,2013-02-24 06:20:00,
2013-02-24 01:25:00,27.7,25.7,29.93,SW,226,0.0,1.0,92,0.00,,OVC OVC///CB,0.00,WUHU216DAVISVP2,2013-02-24 06:25:00,
2013-02-24 01:30:00,27.7,25.7,29.93,SW,226,0.0,1.0,92,0.00,,OVC OVC///CB,0.00,WUHU216DAVISVP2,2013-02-24 06:30:00,
2013-02-24 01:35:00,27.7,25.7,29.93,SW,226,0.0,0.0,92,0.00,,OVC OVC///CB,0.00,WUHU216DAVISVP2,2013-02-24 06:35:00,
2013-02-24 01:40:00,27.8,25.8,29.93,West,278,0.0,1.0,92,0.00,,OVC OVC///CB,0.00,WUHU216DAVISVP2,2013-02-24 06:40:00,
2013-02-24 01:45:00,27.9,25.7,29.93,WNW,284,0.0,2.0,91,0.00,,OVC OVC///CB,0.00,WUHU216DAVISVP2,2013-02-24 06:45:00,
2013-02-24 01:50:00,28.1,25.9,29.93,WNW,293,0.0,2.0,91,0.00,,OVC OVC///CB,0.00,WUHU216DAVISVP2,2013-02-24 06:50:00,
2013-02-24 01:55:00,28.1,25.9,29.94,WNW,285,0.0,2.0,91,0.00,,OVC OVC///CB,0.00,WUHU216DAVISVP2,2013-02-24 06:55:00,
2013-02-24 02:00:00,28.2,25.7,29.94,WNW,285,0.0,2.0,90,0.00,,OVC OVC///CB,0.00,WUHU216DAVISVP2,2013-02-24 07:00:00,
2013-02-24 02:05:00,28.2,25.7,29.94,NW,314,0.0,2.0,90,0.00,,OVC OVC///CB,0.00,WUHU216DAVISVP2,2013-02-24 07:05:00,
2013-02-24 02:10:00,28.3,25.8,29.94,WNW,287,1.0,1.0,90,0.00,,OVC OVC///CB,0.00,WUHU216DAVISVP2,2013-02-24 07:10:00,
2013-02-24 02:15:00,28.3,25.8,29.94,NW,319,0.0,2.0,90,0.00,,OVC OVC///CB,0.00,WUHU216DAVISVP2,2013-02-24 07:15:00,
2013-02-24 02:20:00,28.3,25.8,29.94,West,277,0.0,2.0,90,0.00,,OVC OVC///CB,0.00,WUHU216DAVISVP2,2013-02-24 07:20:00,
2013-02-24 02:25:00,28.3,25.8,29.94,West,281,0.0,2.0,90,0.00,,OVC OVC///CB,0.00,WUHU216DAVISVP2,2013-02-24 07:25:00,
2013-02-24 02:30:00,28.4,25.9,29.94,West,259,0.0,2.0,90,0.00,,OVC OVC///CB,0.00,WUHU216DAVISVP2,2013-02-24 07:30:00,
2013-02-24 02:35:00,28.4,25.6,29.94,WNW,284,0.0,2.0,89,0.00,,OVC OVC///CB,0.00,WUHU216DAVISVP2,2013-02-24 07:35:00,
2013-02-24 02:40:00,28.5,25.7,29.94,WNW,283,2.0,3.0,89,0.00,,OVC OVC///CB,0.00,WUHU216DAVISVP2,2013-02-24 07:40:00,
2013-02-24 02:45:00,28.5,25.7,29.94,WNW,300,0.0,3.0,89,0.00,,OVC OVC///CB,0.00,WUHU216DAVISVP2,2013-02-24 07:45:00,
2013-02-24 02:50:00,28.6,25.6,29.94,WSW,242,0.0,3.0,88,0.00,,OVC OVC///CB,0.00,WUHU216DAVISVP2,2013-02-24 07:50:00,
2013-02-24 02:55:00,28.6,25.6,29.94,West,280,1.0,3.0,88,0.00,,OVC OVC///CB,0.00,WUHU216DAVISVP2,2013-02-24 07:55:00,
2013-02-24 03:00:00,28.6,25.6,29.94,West,279,0.0,3.0,88,0.00,,OVC OVC///CB,0.00,WUHU216DAVISVP2,2013-02-24 08:00:00,
2013-02-24 03:05:00,28.6,25.6,29.94,NW,307,0.0,3.0,88,0.00,,OVC OVC///CB,0.00,WUHU216DAVISVP2,2013-02-24 08:05:00,
2013-02-24 03:10:00,28.6,25.6,29.94,West,280,2.0,4.0,88,0.00,,OVC OVC///CB,0.00,WUHU216DAVISVP2,2013-02-24 08:10:00,
2013-02-24 03:15:00,28.6,25.6,29.95,West,268,1.0,5.0,88,0.00,,OVC OVC///CB,0.00,WUHU216DAVISVP2,2013-02-24 08:15:00,
2013-02-24 03:20:00,28.6,25.6,29.94,West,276,0.0,5.0,88,0.00,,OVC OVC///CB,0.00,WUHU216DAVISVP2,2013-02-24 08:20:00,
2013-02-24 03:25:00,28.6,25.6,29.95,WNW,282,0.0,5.0,88,0.00,,OVC OVC///CB,0.00,WUHU216DAVISVP2,2013-02-24 08:25:00,
2013-02-24 03:30:00,28.5,25.5,29.95,WNW,284,1.0,3.0,88,0.00,,OVC OVC///CB,0.00,WUHU216DAVISVP2,2013-02-24 08:30:00,
2013-02-24 03:35:00,28.6,25.6,29.94,WNW,285,1.0,4.0,88,0.00,,OVC OVC///CB,0.00,WUHU216DAVISVP2,2013-02-24 08:35:00,
2013-02-24 03:40:00,28.6,25.6,29.95,WSW,256,2.0,4.0,88,0.00,,OVC OVC///CB,0.00,WUHU216DAVISVP2,2013-02-24 08:40:00,
2013-02-24 03:45:00,28.6,25.6,29.95,West,280,1.0,5.0,88,0.00,,OVC OVC///CB,0.00,WUHU216DAVISVP2,2013-02-24 08:45:00,
2013-02-24 03:50:00,28.6,25.6,29.95,West,266,0.0,5.0,88,0.00,,OVC OVC///CB,0.00,WUHU216DAVISVP2,2013-02-24 08:50:00,
2013-02-24 03:55:00,28.6,25.6,29.95,West,260,0.0,5.0,88,0.00,,OVC OVC///CB,0.00,WUHU216DAVISVP2,2013-02-24 08:55:00,
2013-02-24 04:00:00,28.6,25.6,29.95,West,281,2.0,5.0,88,0.00,,OVC OVC///CB,0.00,WUHU216DAVISVP2,2013-02-24 09:00:00,
2013-02-24 04:05:00,28.5,25.5,29.95,WSW,242,0.0,4.0,88,0.00,,OVC OVC///CB,0.00,WUHU216DAVISVP2,2013-02-24 09:05:00,
2013-02-24 04:10:00,28.5,25.5,29.95,WNW,297,2.0,4.0,88,0.00,,OVC OVC///CB,0.00,WUHU216DAVISVP2,2013-02-24 09:10:00,
2013-02-24 04:15:00,28.5,25.5,29.95,WNW,293,3.0,6.0,88,0.00,,OVC OVC///CB,0.00,WUHU216DAVISVP2,2013-02-24 09:15:00,
2013-02-24 04:20:00,28.5,25.5,29.95,NW,304,2.0,6.0,88,0.00,,OVC OVC///CB,0.00,WUHU216DAVISVP2,2013-02-24 09:20:00,
2013-02-24 04:25:00,28.5,25.2,29.95,WNW,294,2.0,9.0,87,0.00,,OVC OVC///CB,0.00,WUHU216DAVISVP2,2013-02-24 09:25:00,
2013-02-24 04:30:00,28.5,25.2,29.95,WSW,258,3.0,9.0,87,0.00,,OVC OVC///CB,0.00,WUHU216DAVISVP2,2013-02-24 09:30:00,
2013-02-24 04:35:00,28.5,25.2,29.95,WNW,290,1.0,9.0,87,0.00,,OVC OVC///CB,0.00,WUHU216DAVISVP2,2013-02-24 09:35:00,
2013-02-24 04:40:00,28.5,24.9,29.95,WSW,242,0.0,7.0,86,0.00,,OVC OVC///CB,0.00,WUHU216DAVISVP2,2013-02-24 09:40:00,
2013-02-24 04:45:00,28.5,24.9,29.95,WNW,295,0.0,6.0,86,0.00,,OVC OVC///CB,0.00,WUHU216DAVISVP2,2013-02-24 09:45:00,
2013-02-24 04:50:00,28.4,24.6,29.95,NW,305,4.0,8.0,85,0.00,,OVC OVC///CB,0.00,WUHU216DAVISVP2,2013-02-24 09:50:00,
2013-02-24 04:55:00,28.4,24.8,29.95,West,281,4.0,8.0,86,0.00,,OVC OVC///CB,0.00,WUHU216DAVISVP2,2013-02-24 09:55:00,
2013-02-24 05:00:00,28.3,24.7,29.95,WNW,302,5.0,8.0,86,0.00,,OVC OVC///CB,0.00,WUHU216DAVISVP2,2013-02-24 10:00:00,
2013-02-24 05:05:00,28.3,25.0,29.95,WNW,283,1.0,8.0,87,0.00,,OVC OVC///CB,0.00,WUHU216DAVISVP2,2013-02-24 10:05:00,
2013-02-24 05:10:00,28.2,24.9,29.95,WNW,293,3.0,8.0,87,0.00,,OVC OVC///CB,0.00,WUHU216DAVISVP2,2013-02-24 10:10:00,
2013-02-24 05:15:00,28.2,24.9,29.95,WNW,295,1.0,7.0,87,0.00,,OVC OVC///CB,0.00,WUHU216DAVISVP2,2013-02-24 10:15:00,
2013-02-24 05:20:00,28.1,24.8,29.95,WSW,248,3.0,7.0,87,0.00,,OVC OVC///CB,0.00,WUHU216DAVISVP2,2013-02-24 10:20:00,
2013-02-24 05:25:00,28.0,24.7,29.96,West,281,5.0,7.0,87,0.00,,OVC OVC///CB,0.00,WUHU216DAVISVP2,2013-02-24 10:25:00,
2013-02-24 05:30:00,27.9,24.3,29.96,West,279,4.0,7.0,86,0.00,,OVC OVC///CB,0.00,WUHU216DAVISVP2,2013-02-24 10:30:00,
2013-02-24 05:35:00,27.9,24.6,29.96,WNW,293,3.0,7.0,87,0.00,,OVC OVC///CB,0.00,WUHU216DAVISVP2,2013-02-24 10:35:00,
2013-02-24 05:40:00,27.8,24.2,29.96,NW,313,6.0,7.0,86,0.00,,OVC OVC///CB,0.00,WUHU216DAVISVP2,2013-02-24 10:40:00,
2013-02-24 05:45:00,27.8,24.5,29.96,West,266,1.0,7.0,87,0.00,,OVC OVC///CB,0.00,WUHU216DAVISVP2,2013-02-24 10:45:00,
2013-02-24 05:50:00,27.7,24.1,29.96,WNW,288,3.0,7.0,86,0.00,,OVC OVC///CB,0.00,WUHU216DAVISVP2,2013-02-24 10:50:00,
2013-02-24 05:55:00,27.6,24.0,29.96,NW,322,3.0,9.0,86,0.00,,OVC OVC///CB,0.00,WUHU216DAVISVP2,2013-02-24 10:55:00,
2013-02-24 06:00:00,27.5,23.9,29.96,NW,305,6.0,9.0,86,0.00,,OVC OVC///CB,0.00,WUHU216DAVISVP2,2013-02-24 11:00:00,
2013-02-24 06:05:00,27.5,23.7,29.96,WNW,288,2.0,9.0,85,0.00,,OVC OVC///CB,0.00,WUHU216DAVISVP2,2013-02-24 11:05:00,
2013-02-24 06:10:00,27.4,23.3,29.97,WNW,297,5.0,10.0,84,0.00,,OVC OVC///CB,0.00,WUHU216DAVISVP2,2013-02-24 11:10:00,
2013-02-24 06:15:00,27.3,23.2,29.97,WNW,288,2.0,10.0,84,0.00,,OVC OVC///CB,0.00,WUHU216DAVISVP2,2013-02-24 11:15:00,
2013-02-24 06:20:00,27.3,22.9,29.98,WNW,291,3.0,10.0,83,0.00,,OVC OVC///CB,0.00,WUHU216DAVISVP2,2013-02-24 11:20:00,
2013-02-24 06:25:00,27.2,22.8,29.98,NW,314,3.0,10.0,83,0.00,,OVC OVC///CB,0.00,WUHU216DAVISVP2,2013-02-24 11:25:00,
2013-02-24 06:30:00,27.2,22.8,29.98,WNW,288,1.0,8.0,83,0.00,,OVC OVC///CB,0.00,WUHU216DAVISVP2,2013-02-24 11:30:00,
2013-02-24 06:35:00,27.2,22.8,29.98,West,276,2.0,8.0,83,0.00,,OVC OVC///CB,0.00,WUHU216DAVISVP2,2013-02-24 11:35:00,
2013-02-24 06:40:00,27.2,22.8,29.99,WNW,295,2.0,8.0,83,0.00,,OVC OVC///CB,0.00,WUHU216DAVISVP2,2013-02-24 11:40:00,
2013-02-24 06:45:00,27.1,23.0,29.99,WNW,293,1.0,8.0,84,0.00,,OVC OVC///CB,0.00,WUHU216DAVISVP2,2013-02-24 11:45:00,
2013-02-24 06:50:00,27.1,22.7,29.99,NW,307,6.0,13.0,83,0.00,,OVC OVC///CB,0.00,WUHU216DAVISVP2,2013-02-24 11:50:00,
2013-02-24 06:55:00,27.0,22.6,30.00,NW,319,3.0,13.0,83,0.00,,OVC OVC///CB,0.00,WUHU216DAVISVP2,2013-02-24 11:55:00,
2013-02-24 07:00:00,26.9,22.2,30.00,WNW,295,2.0,13.0,82,0.00,,OVC OVC///CB,0.00,WUHU216DAVISVP2,2013-02-24 12:00:00,
2013-02-24 07:05:00,26.7,21.8,30.00,WNW,298,2.0,12.0,81,0.00,,OVC OVC///CB,0.00,WUHU216DAVISVP2,2013-02-24 12:05:00,
2013-02-24 07:10:00,26.7,21.8,30.00,WNW,283,3.0,12.0,81,0.00,,OVC OVC///CB,0.00,WUHU216DAVISVP2,2013-02-24 12:10:00,
2013-02-24 07:15:00,26.7,21.8,30.00,WNW,291,3.0,12.0,81,0.00,,OVC OVC///CB,0.00,WUHU216DAVISVP2,2013-02-24 12:15:00,
2013-02-24 07:20:00,26.6,21.4,30.00,West,277,4.0,9.0,80,0.00,,OVC OVC///CB,0.00,WUHU216DAVISVP2,2013-02-24 12:20:00,
2013-02-24 07:25:00,26.6,21.4,30.00,WNW,285,3.0,9.0,80,0.00,,OVC OVC///CB,0.00,WUHU216DAVISVP2,2013-02-24 12:25:00,
2013-02-24 07:30:00,26.6,21.4,30.00,WNW,291,3.0,9.0,80,0.00,,OVC OVC///CB,0.00,WUHU216DAVISVP2,2013-02-24 12:30:00,
2013-02-24 07:35:00,26.5,21.3,30.00,NW,325,1.0,9.0,80,0.00,,OVC OVC///CB,0.00,WUHU216DAVISVP2,2013-02-24 12:35:00,
2013-02-24 07:40:00,26.5,21.6,30.00,NNW,339,7.0,10.0,81,0.00,,OVC OVC///CB,0.00,WUHU216DAVISVP2,2013-02-24 12:40:00,
2013-02-24 07:45:00,26.5,21.3,30.01,WNW,295,6.0,16.0,80,0.00,,OVC OVC///CB,0.00,WUHU216DAVISVP2,2013-02-24 12:45:00,
2013-02-24 07:50:00,26.5,21.6,30.01,WNW,295,7.0,17.0,81,0.00,,OVC OVC///CB,0.00,WUHU216DAVISVP2,2013-02-24 12:50:00,
2013-02-24 07:55:00,26.4,21.5,30.01,NNW,332,7.0,17.0,81,0.00,,OVC OVC///CB,0.00,WUHU216DAVISVP2,2013-02-24 12:55:00,
2013-02-24 08:00:00,26.4,21.5,30.02,West,281,3.0,17.0,81,0.00,,OVC OVC///CB,0.00,WUHU216DAVISVP2,2013-02-24 13:00:00,
2013-02-24 08:05:00,26.4,21.5,30.01,WNW,284,3.0,12.0,81,0.00,,OVC OVC///CB,0.00,WUHU216DAVISVP2,2013-02-24 13:05:00,
2013-02-24 08:10:00,26.3,21.7,30.02,WNW,295,4.0,12.0,82,0.00,,OVC OVC///CB,0.00,WUHU216DAVISVP2,2013-02-24 13:10:00,
2013-02-24 08:15:00,26.3,21.7,30.02,NNW,327,2.0,12.0,82,0.00,,OVC OVC///CB,0.00,WUHU216DAVISVP2,2013-02-24 13:15:00,
2013-02-24 08:20:00,26.3,21.7,30.02,NW,311,1.0,12.0,82,0.00,,OVC OVC///CB,0.00,WUHU216DAVISVP2,2013-02-24 13:20:00,
2013-02-24 08:25:00,26.4,21.8,30.02,NNW,340,5.0,12.0,82,0.00,,OVC OVC///CB,0.00,WUHU216DAVISVP2,2013-02-24 13:25:00,
2013-02-24 08:30:00,26.3,21.7,30.02,WNW,301,9.0,12.0,82,0.00,,OVC OVC///CB,0.00,WUHU216DAVISVP2,2013-02-24 13:30:00,
2013-02-24 08:35:00,26.3,21.7,30.02,WNW,298,4.0,12.0,82,0.00,,OVC OVC///CB,0.00,WUHU216DAVISVP2,2013-02-24 13:35:00,
2013-02-24 08:40:00,26.3,21.9,30.02,NW,321,3.0,11.0,83,0.00,,OVC OVC///CB,0.00,WUHU216DAVISVP2,2013-02-24 13:40:00,
2013-02-24 08:45:00,26.3,21.7,30.02,WNW,287,1.0,11.0,82,0.00,,OVC OVC///CB,0.00,WUHU216DAVISVP2,2013-02-24 13:45:00,
2013-02-24 08:50:00,26.2,21.6,30.03,West,280,8.0,11.0,82,0.00,,OVC OVC///CB,0.00,WUHU216DAVISVP2,2013-02-24 13:50:00,
2013-02-24 08:55:00,26.1,21.5,30.03,NW,308,2.0,12.0,82,0.00,,OVC OVC///CB,0.00,WUHU216DAVISVP2,2013-02-24 13:55:00,
2013-02-24 09:00:00,25.9,21.5,30.03,West,281,2.0,12.0,83,0.00,,OVC OVC///CB,0.00,WUHU216DAVISVP2,2013-02-24 14:00:00,
2013-02-24 09:05:00,26.0,21.6,30.04,WSW,256,5.0,12.0,83,0.00,,OVC OVC///CB,0.00,WUHU216DAVISVP2,2013-02-24 14:05:00,
2013-02-24 09:10:00,26.0,21.4,30.04,WNW,291,5.0,12.0,82,0.00,,OVC OVC///CB,0.00,WUHU216DAVISVP2,2013-02-24 14:10:00,
2013-02-24 09:15:00,25.9,21.5,30.04,WNW,295,4.0,11.0,83,0.00,,OVC OVC///CB,0.00,WUHU216DAVISVP2,2013-02-24 14:15:00,
2013-02-24 09:20:00,26.0,21.6,30.03,North,6,2.0,9.0,83,0.00,,OVC OVC///CB,0.00,WUHU216DAVISVP2,2013-02-24 14:20:00,
2013-02-24 09:25:00,26.0,21.6,30.04,NW,308,6.0,9.0,83,0.00,,OVC OVC///CB,0.00,WUHU216DAVISVP2,2013-02-24 14:25:00,
2013-02-24 09:30:00,26.0,21.9,30.04,WNW,290,4.0,9.0,84,0.00,,OVC OVC///CB,0.00,WUHU216DAVISVP2,2013-02-24 14:30:00,
2013-02-24 09:35:00,26.0,21.9,30.04,West,276,2.0,9.0,84,0.00,,OVC OVC///CB,0.00,WUHU216DAVISVP2,2013-02-24 14:35:00,
2013-02-24 09:40:00,26.0,21.6,30.05,West,271,10.0,16.0,83,0.00,,OVC OVC///CB,0.00,WUHU216DAVISVP2,2013-02-24 14:40:00,
2013-02-24 09:45:00,26.0,21.6,30.05,WNW,287,9.0,16.0,83,0.00,,OVC OVC///CB,0.00,WUHU216DAVISVP2,2013-02-24 14:45:00,
2013-02-24 09:50:00,26.0,21.6,30.05,WNW,288,3.0,16.0,83,0.00,,OVC OVC///CB,0.00,WUHU216DAVISVP2,2013-02-24 14:50:00,
2013-02-24 09:55:00,26.0,21.6,30.05,WNW,284,3.0,16.0,83,0.00,,OVC OVC///CB,0.00,WUHU216DAVISVP2,2013-02-24 14:55:00,
2013-02-24 10:00:00,26.1,21.7,30.05,WNW,288,4.0,10.0,83,0.00,,OVC OVC///CB,0.00,WUHU216DAVISVP2,2013-02-24 15:00:00,
2013-02-24 10:05:00,26.0,21.6,30.05,WNW,302,2.0,10.0,83,0.00,,OVC OVC///CB,0.00,WUHU216DAVISVP2,2013-02-24 15:05:00,
2013-02-24 10:10:00,25.9,21.5,30.05,West,267,4.0,12.0,83,0.00,,OVC OVC///CB,0.00,WUHU216DAVISVP2,2013-02-24 15:10:00,
2013-02-24 10:15:00,25.8,21.4,30.05,West,281,5.0,12.0,83,0.00,,OVC OVC///CB,0.00,WUHU216DAVISVP2,2013-02-24 15:15:00,
2013-02-24 10:20:00,25.7,21.3,30.05,West,267,2.0,12.0,83,0.00,,OVC OVC///CB,0.00,WUHU216DAVISVP2,2013-02-24 15:20:00,
2013-02-24 10:25:00,25.8,21.4,30.06,NW,304,6.0,12.0,83,0.00,,OVC OVC///CB,0.00,WUHU216DAVISVP2,2013-02-24 15:25:00,
2013-02-24 10:30:00,25.8,21.4,30.06,WNW,291,3.0,12.0,83,0.00,,OVC OVC///CB,0.00,WUHU216DAVISVP2,2013-02-24 15:30:00,
2013-02-24 10:35:00,25.9,21.5,30.06,NW,323,7.0,12.0,83,0.00,,OVC OVC///CB,0.00,WUHU216DAVISVP2,2013-02-24 15:35:00,
2013-02-24 10:40:00,25.8,21.4,30.06,West,280,2.0,14.0,83,0.00,,OVC OVC///CB,0.00,WUHU216DAVISVP2,2013-02-24 15:40:00,
2013-02-24 10:45:00,25.8,21.4,30.06,North,360,7.0,14.0,83,0.00,,OVC OVC///CB,0.00,WUHU216DAVISVP2,2013-02-24 15:45:00,
2013-02-24 10:50:00,25.8,21.7,30.06,NW,307,3.0,14.0,84,0.00,,OVC OVC///CB,0.00,WUHU216DAVISVP2,2013-02-24 15:50:00,
2013-02-24 10:55:00,25.9,22.1,30.07,WNW,293,2.0,14.0,85,0.00,,OVC OVC///CB,0.00,WUHU216DAVISVP2,2013-02-24 15:55:00,
2013-02-24 11:00:00,25.8,22.0,30.07,WNW,293,2.0,12.0,85,0.00,,OVC OVC///CB,0.00,WUHU216DAVISVP2,2013-02-24 16:00:00,
2013-02-24 11:05:00,25.9,22.4,30.07,West,278,3.0,12.0,86,0.00,,OVC OVC///CB,0.00,WUHU216DAVISVP2,2013-02-24 16:05:00,
2013-02-24 11:10:00,26.0,22.7,30.07,WNW,285,1.0,12.0,87,0.00,,OVC OVC///CB,0.00,WUHU216DAVISVP2,2013-02-24 16:10:00,
2013-02-24 11:15:00,26.7,23.2,30.07,NW,304,3.0,12.0,86,0.00,,OVC OVC///CB,0.00,WUHU216DAVISVP2,2013-02-24 16:15:00,
2013-02-24 11:20:00,27.3,22.4,30.07,West,269,5.0,9.0,81,0.00,,OVC OVC///CB,0.00,WUHU216DAVISVP2,2013-02-24 16:20:00,
2013-02-24 11:25:00,28.1,21.7,30.07,NW,322,4.0,9.0,76,0.00,,OVC OVC///CB,0.00,WUHU216DAVISVP2,2013-02-24 16:25:00,
2013-02-24 11:30:00,28.5,21.7,30.07,NW,307,4.0,9.0,75,0.00,,OVC OVC///CB,0.00,WUHU216DAVISVP2,2013-02-24 16:30:00,
2013-02-24 11:35:00,28.4,21.3,30.07,WNW,290,2.0,11.0,74,0.00,,OVC OVC///CB,0.00,WUHU216DAVISVP2,2013-02-24 16:35:00,
2013-02-24 11:40:00,28.3,21.2,30.07,WNW,285,4.0,11.0,74,0.00,,OVC OVC///CB,0.00,WUHU216DAVISVP2,2013-02-24 16:40:00,
2013-02-24 11:45:00,28.4,21.3,30.07,WNW,287,7.0,15.0,74,0.00,,OVC OVC///CB,0.00,WUHU216DAVISVP2,2013-02-24 16:45:00,
2013-02-24 11:50:00,28.4,21.3,30.07,WSW,248,4.0,15.0,74,0.00,,OVC OVC///CB,0.00,WUHU216DAVISVP2,2013-02-24 16:50:00,
2013-02-24 11:55:00,28.7,21.9,30.07,WSW,256,4.0,15.0,75,0.00,,OVC OVC///CB,0.00,WUHU216DAVISVP2,2013-02-24 16:55:00,
2013-02-24 12:00:00,28.9,21.8,30.07,West,278,3.0,15.0,74,0.00,,OVC OVC///CB,0.00,WUHU216DAVISVP2,2013-02-24 17:00:00,
2013-02-24 12:05:00,28.7,21.6,30.07,West,263,8.0,9.0,74,0.00,,OVC OVC///CB,0.00,WUHU216DAVISVP2,2013-02-24 17:05:00,
2013-02-24 12:10:00,28.5,21.7,30.07,NNW,332,8.0,11.0,75,0.00,,OVC OVC///CB,0.00,WUHU216DAVISVP2,2013-02-24 17:10:00,
2013-02-24 12:15:00,28.4,21.6,30.07,WNW,295,5.0,11.0,75,0.00,,OVC OVC///CB,0.00,WUHU216DAVISVP2,2013-02-24 17:15:00,
2013-02-24 12:20:00,28.3,21.9,30.07,NW,312,6.0,11.0,76,0.00,,OVC OVC///CB,0.00,WUHU216DAVISVP2,2013-02-24 17:20:00,
2013-02-24 12:25:00,28.3,22.2,30.07,West,271,4.0,11.0,77,0.00,,OVC OVC///CB,0.00,WUHU216DAVISVP2,2013-02-24 17:25:00,
2013-02-24 12:30:00,28.6,22.4,30.07,WNW,288,2.0,11.0,77,0.00,,OVC OVC///CB,0.00,WUHU216DAVISVP2,2013-02-24 17:30:00,
2013-02-24 12:35:00,29.0,22.8,30.07,NW,310,5.0,10.0,77,0.00,,OVC OVC///CB,0.00,WUHU216DAVISVP2,2013-02-24 17:35:00,
2013-02-24 12:40:00,29.1,22.9,30.07,West,266,2.0,11.0,77,0.00,,OVC OVC///CB,0.00,WUHU216DAVISVP2,2013-02-24 17:40:00,
2013-02-24 12:45:00,29.1,23.2,30.07,WSW,258,4.0,11.0,78,0.00,,OVC OVC///CB,0.00,WUHU216DAVISVP2,2013-02-24 17:45:00,
2013-02-24 12:50:00,29.1,22.9,30.07,WSW,258,5.0,11.0,77,0.00,,OVC OVC///CB,0.00,WUHU216DAVISVP2,2013-02-24 17:50:00,
2013-02-24 12:55:00,28.9,22.7,30.07,WNW,288,5.0,12.0,77,0.00,,OVC OVC///CB,0.00,WUHU216DAVISVP2,2013-02-24 17:55:00,
2013-02-24 13:00:00,28.8,22.9,30.07,WNW,290,2.0,12.0,78,0.00,,OVC OVC///CB,0.00,WUHU216DAVISVP2,2013-02-24 18:00:00,
2013-02-24 13:05:00,29.3,23.4,30.08,SW,229,2.0,12.0,78,0.00,,OVC OVC///CB,0.00,WUHU216DAVISVP2,2013-02-24 18:05:00,
2013-02-24 13:10:00,29.5,23.3,30.08,WSW,256,4.0,12.0,77,0.00,,OVC OVC///CB,0.00,WUHU216DAVISVP2,2013-02-24 18:10:00,
2013-02-24 13:15:00,29.2,23.0,30.08,WSW,245,6.0,10.0,77,0.00,,OVC OVC///CB,0.00,WUHU216DAVISVP2,2013-02-24 18:15:00,
2013-02-24 13:20:00,29.0,23.1,30.08,WSW,243,2.0,10.0,78,0.00,,OVC OVC///CB,0.00,WUHU216DAVISVP2,2013-02-24 18:20:00,
2013-02-24 13:25:00,29.2,23.3,30.08,SW,219,4.0,10.0,78,0.00,,OVC OVC///CB,0.00,WUHU216DAVISVP2,2013-02-24 18:25:00,
2013-02-24 13:30:00,29.4,23.8,30.08,West,276,5.0,10.0,79,0.00,,OVC OVC///CB,0.00,WUHU216DAVISVP2,2013-02-24 18:30:00,
2013-02-24 13:35:00,29.9,24.0,30.08,West,280,3.0,10.0,78,0.00,,OVC OVC///CB,0.00,WUHU216DAVISVP2,2013-02-24 18:35:00,
2013-02-24 13:40:00,30.5,24.0,30.08,West,276,4.0,10.0,76,0.00,,OVC OVC///CB,0.00,WUHU216DAVISVP2,2013-02-24 18:40:00,
2013-02-24 13:45:00,30.4,23.3,30.07,West,274,5.0,13.0,74,0.00,,OVC OVC///CB,0.00,WUHU216DAVISVP2,2013-02-24 18:45:00,
2013-02-24 13:50:00,30.2,23.4,30.08,WNW,297,3.0,13.0,75,0.00,,OVC OVC///CB,0.00,WUHU216DAVISVP2,2013-02-24 18:50:00,
2013-02-24 13:55:00,30.1,23.6,30.08,WNW,288,4.0,13.0,76,0.00,,OVC OVC///CB,0.00,WUHU216DAVISVP2,2013-02-24 18:55:00,
2013-02-24 14:00:00,29.9,24.0,30.08,WSW,244,6.0,13.0,78,0.00,,OVC OVC///CB,0.00,WUHU216DAVISVP2,2013-02-24 19:00:00,
2013-02-24 14:05:00,30.0,23.8,30.08,WNW,285,4.0,12.0,77,0.00,,OVC OVC///CB,0.00,WUHU216DAVISVP2,2013-02-24 19:05:00,
2013-02-24 14:10:00,30.1,23.9,30.08,West,278,7.0,11.0,77,0.00,,OVC OVC///CB,0.00,WUHU216DAVISVP2,2013-02-24 19:10:00,
2013-02-24 14:15:00,30.0,23.8,30.08,WNW,294,5.0,12.0,77,0.00,,OVC OVC///CB,0.00,WUHU216DAVISVP2,2013-02-24 19:15:00,
2013-02-24 14:20:00,30.1,23.6,30.08,WNW,300,5.0,12.0,76,0.00,,OVC OVC///CB,0.00,WUHU216DAVISVP2,2013-02-24 19:20:00,
2013-02-24 14:25:00,30.3,23.8,30.09,WSW,248,5.0,12.0,76,0.00,,OVC OVC///CB,0.00,WUHU216DAVISVP2,2013-02-24 19:25:00,
2013-02-24 14:30:00,30.1,23.9,30.09,West,280,4.0,12.0,77,0.00,,OVC OVC///CB,0.00,WUHU216DAVISVP2,2013-02-24 19:30:00,
2013-02-24 14:35:00,30.2,23.4,30.09,WSW,243,5.0,12.0,75,0.00,,OVC OVC///CB,0.00,WUHU216DAVISVP2,2013-02-24 19:35:00,
2013-02-24 14:40:00,30.3,23.5,30.09,WSW,240,7.0,11.0,75,0.00,,OVC OVC///CB,0.00,WUHU216DAVISVP2,2013-02-24 19:40:00,
2013-02-24 14:45:00,30.7,24.5,30.09,West,273,8.0,11.0,77,0.00,,OVC OVC///CB,0.00,WUHU216DAVISVP2,2013-02-24 19:45:00,
2013-02-24 14:50:00,30.9,24.4,30.08,WNW,283,4.0,10.0,76,0.00,,OVC OVC///CB,0.00,WUHU216DAVISVP2,2013-02-24 19:50:00,
2013-02-24 14:55:00,30.9,24.1,30.09,WNW,295,3.0,10.0,75,0.00,,OVC OVC///CB,0.00,WUHU216DAVISVP2,2013-02-24 19:55:00,
2013-02-24 15:00:00,31.1,24.3,30.09,West,271,2.0,10.0,75,0.00,,OVC OVC///CB,0.00,WUHU216DAVISVP2,2013-02-24 20:00:00,
2013-02-24 15:05:00,31.1,24.0,30.09,NW,316,5.0,10.0,74,0.00,,OVC OVC///CB,0.00,WUHU216DAVISVP2,2013-02-24 20:05:00,
2013-02-24 15:10:00,31.2,24.0,30.09,SW,232,5.0,8.0,74,0.00,,OVC OVC///CB,0.00,WUHU216DAVISVP2,2013-02-24 20:10:00,
2013-02-24 15:15:00,31.2,24.0,30.09,NNW,338,6.0,10.0,74,0.00,,OVC OVC///CB,0.00,WUHU216DAVISVP2,2013-02-24 20:15:00,
2013-02-24 15:20:00,31.2,24.0,30.10,West,276,3.0,11.0,74,0.00,,OVC OVC///CB,0.00,WUHU216DAVISVP2,2013-02-24 20:20:00,
2013-02-24 15:25:00,31.2,24.0,30.10,WNW,288,2.0,11.0,74,0.00,,OVC OVC///CB,0.00,WUHU216DAVISVP2,2013-02-24 20:25:00,
2013-02-24 15:30:00,31.3,24.5,30.10,West,281,6.0,10.0,75,0.00,,OVC OVC///CB,0.00,WUHU216DAVISVP2,2013-02-24 20:30:00,
2013-02-24 15:35:00,31.4,24.2,30.10,WSW,256,1.0,10.0,74,0.00,,OVC OVC///CB,0.00,WUHU216DAVISVP2,2013-02-24 20:35:00,
2013-02-24 15:40:00,31.4,24.2,30.10,North,349,5.0,10.0,74,0.00,,OVC OVC///CB,0.00,WUHU216DAVISVP2,2013-02-24 20:40:00,
2013-02-24 15:45:00,31.6,24.4,30.10,West,281,3.0,11.0,74,0.00,,OVC OVC///CB,0.00,WUHU216DAVISVP2,2013-02-24 20:45:00,
2013-02-24 15:50:00,31.7,24.5,30.10,West,276,4.0,11.0,74,0.00,,OVC OVC///CB,0.00,WUHU216DAVISVP2,2013-02-24 20:50:00,
2013-02-24 15:55:00,31.6,24.4,30.10,West,278,5.0,11.0,74,0.00,,OVC OVC///CB,0.00,WUHU216DAVISVP2,2013-02-24 20:55:00,
2013-02-24 16:00:00,31.5,24.3,30.10,WNW,287,7.0,11.0,74,0.00,,OVC OVC///CB,0.00,WUHU216DAVISVP2,2013-02-24 21:00:00,
2013-02-24 16:05:00,31.5,24.7,30.10,WNW,286,1.0,10.0,75,0.00,,OVC OVC///CB,0.00,WUHU216DAVISVP2,2013-02-24 21:05:00,
2013-02-24 16:10:00,31.6,25.1,30.10,West,274,5.0,10.0,76,0.00,,OVC OVC///CB,0.00,WUHU216DAVISVP2,2013-02-24 21:10:00,
2013-02-24 16:15:00,31.6,24.8,30.11,West,267,2.0,10.0,75,0.00,,OVC OVC///CB,0.00,WUHU216DAVISVP2,2013-02-24 21:15:00,
2013-02-24 16:20:00,31.5,24.7,30.11,WNW,298,5.0,9.0,75,0.00,,OVC OVC///CB,0.00,WUHU216DAVISVP2,2013-02-24 21:20:00,
2013-02-24 16:25:00,31.5,24.7,30.11,West,278,2.0,9.0,75,0.00,,OVC OVC///CB,0.00,WUHU216DAVISVP2,2013-02-24 21:25:00,
2013-02-24 16:30:00,31.6,24.8,30.11,WNW,284,3.0,7.0,75,0.00,,OVC OVC///CB,0.00,WUHU216DAVISVP2,2013-02-24 21:30:00,
2013-02-24 16:35:00,31.8,24.9,30.11,West,276,2.0,7.0,75,0.00,,OVC OVC///CB,0.00,WUHU216DAVISVP2,2013-02-24 21:35:00,
2013-02-24 16:40:00,31.8,24.9,30.11,West,273,2.0,6.0,75,0.00,,OVC OVC///CB,0.00,WUHU216DAVISVP2,2013-02-24 21:40:00,
2013-02-24 16:45:00,31.8,24.9,30.11,WNW,291,6.0,7.0,75,0.00,,OVC OVC///CB,0.00,WUHU216DAVISVP2,2013-02-24 21:45:00,
2013-02-24 16:50:00,31.8,24.9,30.11,WNW,297,4.0,7.0,75,0.00,,OVC OVC///CB,0.00,WUHU216DAVISVP2,2013-02-24 21:50:00,
2013-02-24 16:55:00,31.7,24.8,30.12,WNW,285,3.0,9.0,75,0.00,,OVC OVC///CB,0.00,WUHU216DAVISVP2,2013-02-24 21:55:00,
2013-02-24 17:00:00,31.6,24.8,30.12,WNW,288,2.0,9.0,75,0.00,,OVC OVC///CB,0.00,WUHU216DAVISVP2,2013-02-24 22:00:00,
2013-02-24 17:05:00,31.6,24.8,30.12,WSW,238,4.0,8.0,75,0.00,,OVC OVC///CB,0.00,WUHU216DAVISVP2,2013-02-24 22:05:00,
2013-02-24 17:10:00,31.6,24.8,30.12,West,277,2.0,8.0,75,0.00,,OVC OVC///CB,0.00,WUHU216DAVISVP2,2013-02-24 22:10:00,
2013-02-24 17:15:00,31.7,25.2,30.12,SW,235,2.0,8.0,76,0.00,,OVC OVC///CB,0.00,WUHU216DAVISVP2,2013-02-24 22:15:00,
2013-02-24 17:20:00,31.7,24.8,30.12,WNW,291,2.0,7.0,75,0.00,,OVC OVC///CB,0.00,WUHU216DAVISVP2,2013-02-24 22:20:00,
2013-02-24 17:25:00,31.7,24.8,30.12,WNW,287,2.0,7.0,75,0.00,,OVC OVC///CB,0.00,WUHU216DAVISVP2,2013-02-24 22:25:00,
2013-02-24 17:30:00,31.7,24.8,30.13,West,278,2.0,7.0,75,0.00,,OVC OVC///CB,0.00,WUHU216DAVISVP2,2013-02-24 22:30:00,
2013-02-24 17:35:00,31.7,25.2,30.13,WNW,295,1.0,7.0,76,0.00,,OVC OVC///CB,0.00,WUHU216DAVISVP2,2013-02-24 22:35:00,
2013-02-24 17:40:00,31.7,25.2,30.13,WNW,297,2.0,8.0,76,0.00,,OVC OVC///CB,0.00,WUHU216DAVISVP2,2013-02-24 22:40:00,
2013-02-24 17:45:00,31.7,25.2,30.13,WSW,248,1.0,8.0,76,0.00,,OVC OVC///CB,0.00,WUHU216DAVISVP2,2013-02-24 22:45:00,
2013-02-24 17:50:00,31.7,25.5,30.13,NNW,347,3.0,8.0,77,0.00,,OVC OVC///CB,0.00,WUHU216DAVISVP2,2013-02-24 22:50:00,
2013-02-24 17:55:00,31.6,25.4,30.14,NW,304,3.0,8.0,77,0.00,,OVC OVC///CB,0.00,WUHU216DAVISVP2,2013-02-24 22:55:00,
2013-02-24 18:00:00,31.6,25.4,30.14,WSW,246,4.0,7.0,77,0.00,,OVC OVC///CB,0.00,WUHU216DAVISVP2,2013-02-24 23:00:00,
2013-02-24 18:05:00,31.6,25.4,30.14,West,280,1.0,6.0,77,0.00,,OVC OVC///CB,0.00,WUHU216DAVISVP2,2013-02-24 23:05:00,
2013-02-24 18:10:00,31.6,25.4,30.14,WNW,294,1.0,6.0,77,0.00,,OVC OVC///CB,0.00,WUHU216DAVISVP2,2013-02-24 23:10:00,
2013-02-24 18:15:00,31.6,25.7,30.14,SW,233,1.0,6.0,78,0.00,,OVC OVC///CB,0.00,WUHU216DAVISVP2,2013-02-24 23:15:00,
2013-02-24 18:20:00,31.5,25.6,30.15,West,259,1.0,6.0,78,0.00,,OVC OVC///CB,0.00,WUHU216DAVISVP2,2013-02-24 23:20:00,
2013-02-24 18:25:00,31.5,25.6,30.15,WNW,284,1.0,5.0,78,0.00,,OVC OVC///CB,0.00,WUHU216DAVISVP2,2013-02-24 23:25:00,
2013-02-24 18:30:00,31.6,25.7,30.15,West,278,0.0,4.0,78,0.00,,OVC OVC///CB,0.00,WUHU216DAVISVP2,2013-02-24 23:30:00,
2013-02-24 18:35:00,31.5,25.6,30.15,WNW,288,4.0,6.0,78,0.00,,OVC OVC///CB,0.00,WUHU216DAVISVP2,2013-02-24 23:35:00,
2013-02-24 18:40:00,31.6,25.7,30.15,WNW,293,2.0,6.0,78,0.00,,OVC OVC///CB,0.00,WUHU216DAVISVP2,2013-02-24 23:40:00,
2013-02-24 18:45:00,31.6,25.7,30.15,WNW,291,2.0,6.0,78,0.00,,OVC OVC///CB,0.00,WUHU216DAVISVP2,2013-02-24 23:45:00,
2013-02-24 18:50:00,31.6,26.0,30.15,WNW,284,0.0,6.0,79,0.00,,OVC OVC///CB,0.00,WUHU216DAVISVP2,2013-02-24 23:50:00,
2013-02-24 18:55:00,31.6,26.0,30.16,WNW,285,1.0,5.0,79,0.00,,OVC OVC///CB,0.00,WUHU216DAVISVP2,2013-02-24 23:55:00,
2013-02-24 19:00:00,31.5,25.9,30.16,West,276,1.0,5.0,79,0.00,,OVC OVC///CB,0.00,WUHU216DAVISVP2,2013-02-25 00:00:00,
2013-02-24 19:05:00,31.5,25.9,30.16,NW,312,2.0,3.0,79,0.00,,OVC OVC///CB,0.00,WUHU216DAVISVP2,2013-02-25 00:05:00,
2013-02-24 19:10:00,31.5,26.2,30.16,West,280,0.0,3.0,80,0.00,,OVC OVC///CB,0.00,WUHU216DAVISVP2,2013-02-25 00:10:00,
2013-02-24 19:15:00,31.4,26.1,30.16,WSW,258,0.0,3.0,80,0.00,,OVC OVC///CB,0.00,WUHU216DAVISVP2,2013-02-25 00:15:00,
2013-02-24 19:20:00,31.4,26.4,30.17,WNW,301,0.0,3.0,81,0.00,,OVC OVC///CB,0.00,WUHU216DAVISVP2,2013-02-25 00:20:00,
2013-02-24 19:25:00,31.4,26.4,30.17,WNW,293,1.0,5.0,81,0.00,,OVC OVC///CB,0.00,WUHU216DAVISVP2,2013-02-25 00:25:00,
2013-02-24 19:30:00,31.3,26.6,30.17,WNW,298,3.0,5.0,82,0.00,,OVC OVC///CB,0.00,WUHU216DAVISVP2,2013-02-25 00:30:00,
2013-02-24 19:35:00,31.3,26.6,30.17,West,281,1.0,6.0,82,0.00,,OVC OVC///CB,0.00,WUHU216DAVISVP2,2013-02-25 00:35:00,
2013-02-24 19:40:00,31.3,26.6,30.17,WNW,294,1.0,6.0,82,0.00,,OVC OVC///CB,0.00,WUHU216DAVISVP2,2013-02-25 00:40:00,
2013-02-24 19:45:00,31.2,26.7,30.17,WSW,252,0.0,6.0,83,0.00,,OVC OVC///CB,0.00,WUHU216DAVISVP2,2013-02-25 00:45:00,
2013-02-24 19:50:00,31.1,26.9,30.17,WNW,283,1.0,4.0,84,0.00,,OVC OVC///CB,0.00,WUHU216DAVISVP2,2013-02-25 00:50:00,
2013-02-24 19:55:00,31.1,26.9,30.17,WSW,248,2.0,4.0,84,0.00,,OVC OVC///CB,0.00,WUHU216DAVISVP2,2013-02-25 00:55:00,
2013-02-24 20:00:00,31.0,26.8,30.17,West,281,1.0,4.0,84,0.00,,OVC OVC///CB,0.00,WUHU216DAVISVP2,2013-02-25 01:00:00,
2013-02-24 20:05:00,31.0,26.8,30.17,WNW,288,1.0,4.0,84,0.00,,OVC OVC///CB,0.00,WUHU216DAVISVP2,2013-02-25 01:05:00,
2013-02-24 20:10:00,30.9,26.7,30.17,WSW,253,0.0,4.0,84,0.00,,OVC OVC///CB,0.00,WUHU216DAVISVP2,2013-02-25 01:10:00,
2013-02-24 20:15:00,30.9,26.7,30.17,WNW,288,0.0,4.0,84,0.00,,OVC OVC///CB,0.00,WUHU216DAVISVP2,2013-02-25 01:15:00,
2013-02-24 20:20:00,30.9,26.7,30.18,WNW,302,1.0,4.0,84,0.00,,OVC OVC///CB,0.00,WUHU216DAVISVP2,2013-02-25 01:20:00,
2013-02-24 20:25:00,30.9,26.7,30.18,West,262,0.0,4.0,84,0.00,,OVC OVC///CB,0.00,WUHU216DAVISVP2,2013-02-25 01:25:00,
2013-02-24 20:30:00,30.9,26.7,30.18,West,270,0.0,2.0,84,0.00,,OVC OVC///CB,0.00,WUHU216DAVISVP2,2013-02-25 01:30:00,
2013-02-24 20:35:00,30.9,26.7,30.17,WSW,257,0.0,2.0,84,0.00,,OVC OVC///CB,0.00,WUHU216DAVISVP2,2013-02-25 01:35:00,
2013-02-24 20:40:00,30.9,26.7,30.17,WSW,258,0.0,2.0,84,0.00,,OVC OVC///CB,0.00,WUHU216DAVISVP2,2013-02-25 01:40:00,
2013-02-24 20:45:00,30.9,26.7,30.18,WNW,291,2.0,2.0,84,0.00,,OVC OVC///CB,0.00,WUHU216DAVISVP2,2013-02-25 01:45:00,
2013-02-24 20:50:00,30.9,26.7,30.18,West,269,0.0,2.0,84,0.00,,OVC OVC///CB,0.00,WUHU216DAVISVP2,2013-02-25 01:50:00,
2013-02-24 20:55:00,30.9,26.7,30.18,WSW,243,0.0,2.0,84,0.00,,OVC OVC///CB,0.00,WUHU216DAVISVP2,2013-02-25 01:55:00,
2013-02-24 21:00:00,30.9,26.7,30.18,WNW,290,0.0,4.0,84,0.00,,OVC OVC///CB,0.00,WUHU216DAVISVP2,2013-02-25 02:00:00,
2013-02-24 21:05:00,30.9,26.7,30.18,WSW,250,0.0,4.0,84,0.00,,OVC OVC///CB,0.00,WUHU216DAVISVP2,2013-02-25 02:05:00,
2013-02-24 21:10:00,30.8,26.9,30.18,WSW,252,0.0,4.0,85,0.00,,OVC OVC///CB,0.00,WUHU216DAVISVP2,2013-02-25 02:10:00,
2013-02-24 21:15:00,30.8,26.9,30.18,West,263,0.0,4.0,85,0.00,,OVC OVC///CB,0.00,WUHU216DAVISVP2,2013-02-25 02:15:00,
2013-02-24 21:20:00,30.8,26.9,30.18,West,262,1.0,3.0,85,0.00,,OVC OVC///CB,0.00,WUHU216DAVISVP2,2013-02-25 02:20:00,
2013-02-24 21:25:00,30.8,26.9,30.18,WSW,250,0.0,3.0,85,0.00,,OVC OVC///CB,0.00,WUHU216DAVISVP2,2013-02-25 02:25:00,
2013-02-24 21:30:00,30.8,26.9,30.18,WSW,252,0.0,3.0,85,0.00,,OVC OVC///CB,0.00,WUHU216DAVISVP2,2013-02-25 02:30:00,
2013-02-24 21:35:00,30.8,26.9,30.18,WSW,252,0.0,3.0,85,0.00,,OVC OVC///CB,0.00,WUHU216DAVISVP2,2013-02-25 02:35:00,
2013-02-24 21:40:00,30.8,26.9,30.18,SW,232,0.0,3.0,85,0.00,,OVC OVC///CB,0.00,WUHU216DAVISVP2,2013-02-25 02:40:00,
2013-02-24 21:45:00,30.7,26.8,30.18,SW,235,0.0,1.0,85,0.00,,OVC OVC///CB,0.00,WUHU216DAVISVP2,2013-02-25 02:45:00,
2013-02-24 21:50:00,30.7,26.8,30.18,SW,232,0.0,1.0,85,0.00,,OVC OVC///CB,0.00,WUHU216DAVISVP2,2013-02-25 02:50:00,
2013-02-24 21:55:00,30.6,26.7,30.18,SW,229,2.0,2.0,85,0.00,,OVC OVC///CB,0.00,WUHU216DAVISVP2,2013-02-25 02:55:00,
2013-02-24 22:00:00,30.6,26.7,30.18,SW,228,0.0,3.0,85,0.00,,OVC OVC///CB,0.00,WUHU216DAVISVP2,2013-02-25 03:00:00,
2013-02-24 22:05:00,30.6,26.7,30.18,SW,224,0.0,3.0,85,0.00,,OVC OVC///CB,0.00,WUHU216DAVISVP2,2013-02-25 03:05:00,
2013-02-24 22:10:00,30.5,26.9,30.18,SW,228,0.0,2.0,86,0.00,,OVC OVC///CB,0.00,WUHU216DAVISVP2,2013-02-25 03:10:00,
2013-02-24 22:15:00,30.5,26.9,30.18,WSW,237,0.0,2.0,86,0.00,,OVC OVC///CB,0.00,WUHU216DAVISVP2,2013-02-25 03:15:00,
2013-02-24 22:20:00,30.5,26.9,30.18,WSW,238,0.0,2.0,86,0.00,,OVC OVC///CB,0.00,WUHU216DAVISVP2,2013-02-25 03:20:00,
2013-02-24 22:25:00,30.6,27.0,30.18,WSW,248,0.0,2.0,86,0.00,,OVC OVC///CB,0.00,WUHU216DAVISVP2,2013-02-25 03:25:00,
2013-02-24 22:30:00,30.6,27.0,30.18,SW,236,0.0,2.0,86,0.00,,OVC OVC///CB,0.00,WUHU216DAVISVP2,2013-02-25 03:30:00,
2013-02-24 22:35:00,30.6,27.0,30.18,WSW,246,0.0,2.0,86,0.00,,OVC OVC///CB,0.00,WUHU216DAVISVP2,2013-02-25 03:35:00,
2013-02-24 22:40:00,30.6,27.0,30.18,SW,236,0.0,2.0,86,0.00,,OVC OVC///CB,0.00,WUHU216DAVISVP2,2013-02-25 03:40:00,
2013-02-24 22:45:00,30.6,27.0,30.18,SW,235,0.0,2.0,86,0.00,,OVC OVC///CB,0.00,WUHU216DAVISVP2,2013-02-25 03:45:00,
2013-02-24 22:50:00,30.6,27.0,30.18,WSW,238,0.0,2.0,86,0.00,,OVC OVC///CB,0.00,WUHU216DAVISVP2,2013-02-25 03:50:00,
2013-02-24 22:55:00,30.6,27.0,30.18,WSW,238,0.0,1.0,86,0.00,,OVC OVC///CB,0.00,WUHU216DAVISVP2,2013-02-25 03:55:00,
2013-02-24 23:00:00,30.5,26.9,30.18,SW,236,0.0,1.0,86,0.00,,OVC OVC///CB,0.00,WUHU216DAVISVP2,2013-02-25 04:00:00,
2013-02-24 23:05:00,30.5,26.9,30.18,SW,236,0.0,1.0,86,0.00,,OVC OVC///CB,0.00,WUHU216DAVISVP2,2013-02-25 04:05:00,
2013-02-24 23:10:00,30.4,26.8,30.18,SW,236,0.0,1.0,86,0.00,,OVC OVC///CB,0.00,WUHU216DAVISVP2,2013-02-25 04:10:00,
2013-02-24 23:15:00,30.4,26.8,30.18,SW,226,0.0,1.0,86,0.00,,OVC OVC///CB,0.00,WUHU216DAVISVP2,2013-02-25 04:15:00,
2013-02-24 23:20:00,30.4,26.8,30.18,SW,226,0.0,1.0,86,0.00,,OVC OVC///CB,0.00,WUHU216DAVISVP2,2013-02-25 04:20:00,
2013-02-24 23:25:00,30.3,27.0,30.18,SW,224,0.0,1.0,87,0.00,,OVC OVC///CB,0.00,WUHU216DAVISVP2,2013-02-25 04:25:00,
2013-02-24 23:30:00,30.2,26.9,30.18,SW,224,0.0,1.0,87,0.00,,OVC OVC///CB,0.00,WUHU216DAVISVP2,2013-02-25 04:30:00,
2013-02-24 23:35:00,30.2,26.9,30.18,SW,235,0.0,1.0,87,0.00,,OVC OVC///CB,0.00,WUHU216DAVISVP2,2013-02-25 04:35:00,
2013-02-24 23:40:00,30.2,26.9,30.18,SW,235,0.0,1.0,87,0.00,,OVC OVC///CB,0.00,WUHU216DAVISVP2,2013-02-25 04:40:00,
2013-02-24 23:45:00,30.2,26.9,30.18,SW,230,0.0,1.0,87,0.00,,OVC OVC///CB,0.00,WUHU216DAVISVP2,2013-02-25 04:45:00,
2013-02-24 23:50:00,30.2,26.9,30.18,WSW,252,0.0,1.0,87,0.00,,OVC OVC///CB,0.00,WUHU216DAVISVP2,2013-02-25 04:50:00,
2013-02-24 23:55:00,30.2,26.9,30.18,WSW,243,0.0,2.0,87,0.00,,OVC OVC///CB,0.00,WUHU216DAVISVP2,2013-02-25 04:55:00,